createdAt,value
2022-10-05T00:02:22.045Z,8.05
2022-10-05T00:04:51.983Z,7.94
2022-10-05T00:07:21.268Z,7.82
2022-10-05T00:09:59.305Z,7.99
2022-10-05T00:12:28.351Z,7.85
2022-10-05T00:14:59.595Z,7.85
2022-10-05T00:17:28.865Z,7.98
2022-10-05T00:19:56.754Z,7.98
2022-10-05T00:22:32.564Z,7.92
2022-10-05T00:25:11.321Z,7.99
2022-10-05T00:27:38.127Z,8.04
2022-10-05T00:30:13.888Z,8.06
2022-10-05T00:32:42.916Z,8.07
2022-10-05T00:35:11.337Z,7.81
2022-10-05T00:37:38.784Z,7.75
2022-10-05T00:40:28.719Z,7.81
2022-10-05T00:43:22.851Z,7.82
2022-10-05T00:46:03.065Z,7.82
2022-10-05T00:48:34.307Z,7.94
2022-10-05T00:51:19.447Z,7.90
2022-10-05T00:53:46.272Z,7.77
2022-10-05T00:56:38.790Z,7.65
2022-10-05T00:59:22.001Z,7.58
2022-10-05T01:02:07.048Z,7.53
2022-10-05T01:04:53.685Z,7.43
2022-10-05T01:07:29.610Z,7.35
2022-10-05T01:10:19.319Z,7.51
2022-10-05T01:13:13.839Z,7.29
2022-10-05T01:15:43.679Z,7.29
2022-10-05T01:18:22.310Z,7.24
2022-10-05T01:20:59.822Z,7.16
2022-10-05T01:24:05.984Z,7.11
2022-10-05T01:27:16.040Z,7.05
2022-10-05T01:30:03.325Z,6.95
2022-10-05T01:32:34.030Z,7.08
2022-10-05T01:35:29.936Z,7.15
2022-10-05T01:38:22.843Z,7.09
2022-10-05T01:41:21.409Z,7.17
2022-10-05T01:44:03.342Z,7.23
2022-10-05T01:46:43.664Z,7.21
2022-10-05T01:49:16.846Z,7.23
2022-10-05T01:51:48.135Z,7.21
2022-10-05T01:54:53.134Z,7.26
2022-10-05T01:57:39.946Z,7.07
2022-10-05T02:00:25.153Z,7.14
2022-10-05T02:03:00.118Z,6.95
2022-10-05T02:05:35.424Z,7.04
2022-10-05T02:08:19.451Z,7.12
2022-10-05T02:11:07.844Z,7.01
2022-10-05T02:13:34.922Z,6.83
2022-10-05T02:16:17.788Z,6.83
2022-10-05T02:18:56.546Z,6.69
2022-10-05T02:21:24.847Z,6.84
2022-10-05T02:23:57.747Z,6.72
2022-10-05T02:26:26.186Z,6.69
2022-10-05T02:28:59.790Z,6.71
2022-10-05T02:31:39.659Z,6.75
2022-10-05T02:34:26.699Z,6.70
2022-10-05T02:37:22.056Z,6.54
2022-10-05T02:40:02.268Z,6.57
2022-10-05T02:42:51.664Z,6.69
2022-10-05T02:45:24.705Z,6.72
2022-10-05T02:48:21.090Z,6.69
2022-10-05T02:51:05.157Z,6.60
2022-10-05T02:53:43.792Z,6.52
2022-10-05T02:56:31.309Z,6.44
2022-10-05T02:59:17.927Z,6.61
2022-10-05T03:01:58.043Z,6.65
2022-10-05T03:04:32.848Z,6.46
2022-10-05T03:07:14.240Z,6.41
2022-10-05T03:09:49.428Z,6.48
2022-10-05T03:12:44.039Z,6.32
2022-10-05T03:15:48.468Z,6.30
2022-10-05T03:18:30.782Z,6.40
2022-10-05T03:21:28.745Z,6.30
2022-10-05T03:24:23.889Z,6.29
2022-10-05T03:27:04.879Z,6.30
2022-10-05T03:29:43.360Z,6.32
2022-10-05T03:32:42.083Z,6.31
2022-10-05T03:35:19.846Z,6.40
2022-10-05T03:37:46.764Z,6.51
2022-10-05T03:40:32.342Z,6.55
2022-10-05T03:43:18.531Z,6.44
2022-10-05T03:46:24.404Z,6.38
2022-10-05T03:49:15.865Z,6.40
2022-10-05T03:51:48.492Z,6.26
2022-10-05T03:54:21.231Z,6.19
2022-10-05T03:56:55.992Z,6.15
2022-10-05T03:59:32.705Z,6.26
2022-10-05T04:02:06.385Z,6.27
2022-10-05T04:04:53.050Z,6.32
2022-10-05T04:07:42.375Z,6.32
2022-10-05T04:10:39.753Z,6.36
2022-10-05T04:13:16.385Z,6.24
2022-10-05T04:15:57.236Z,6.25
2022-10-05T04:18:34.546Z,6.11
2022-10-05T04:21:23.911Z,6.04
2022-10-05T04:24:09.505Z,5.99
2022-10-05T04:26:55.678Z,5.99
2022-10-05T04:29:45.911Z,5.86
2022-10-05T04:32:15.594Z,5.94
2022-10-05T04:35:11.188Z,5.82
2022-10-05T04:37:54.078Z,5.88
2022-10-05T04:40:27.479Z,6.04
2022-10-05T04:43:16.169Z,6.03
2022-10-05T04:45:55.709Z,5.92
2022-10-05T04:48:46.440Z,6.05
2022-10-05T04:51:28.469Z,6.11
2022-10-05T04:54:17.352Z,5.91
2022-10-05T04:56:56.310Z,5.92
2022-10-05T05:00:14.879Z,5.90
2022-10-05T05:03:09.894Z,5.79
2022-10-05T05:06:15.972Z,5.85
2022-10-05T05:09:08.922Z,5.76
2022-10-05T05:11:52.880Z,5.78
2022-10-05T05:14:46.261Z,5.79
2022-10-05T05:17:41.873Z,5.70
2022-10-05T05:20:32.281Z,5.72
2022-10-05T05:23:46.963Z,5.71
2022-10-05T05:26:42.625Z,5.78
2022-10-05T05:29:21.774Z,5.69
2022-10-05T05:32:23.782Z,5.74
2022-10-05T05:35:11.814Z,5.76
2022-10-05T05:37:58.986Z,5.84
2022-10-05T05:40:32.235Z,5.90
2022-10-05T05:43:03.175Z,5.92
2022-10-05T05:45:46.483Z,5.91
2022-10-05T05:48:42.637Z,6.00
2022-10-05T05:51:25.557Z,6.03
2022-10-05T05:54:07.357Z,6.05
2022-10-05T05:56:40.281Z,6.07
2022-10-05T05:59:29.225Z,6.15
2022-10-05T06:02:08.441Z,6.26
2022-10-05T06:04:46.754Z,6.30
2022-10-05T06:07:19.110Z,6.36
2022-10-05T06:10:19.769Z,6.40
2022-10-05T06:13:04.986Z,6.50
2022-10-05T06:15:47.099Z,6.57
2022-10-05T06:18:19.987Z,6.64
2022-10-05T06:20:58.637Z,6.72
2022-10-05T06:23:47.897Z,6.79
2022-10-05T06:26:26.969Z,6.85
2022-10-05T06:29:02.668Z,6.91
2022-10-05T06:31:49.714Z,6.99
2022-10-05T06:34:36.070Z,7.10
2022-10-05T06:37:12.909Z,7.22
2022-10-05T06:40:00.914Z,7.33
2022-10-05T06:42:50.820Z,7.46
2022-10-05T06:45:53.778Z,7.67
2022-10-05T06:48:55.302Z,7.83
2022-10-05T06:52:08.014Z,8.01
2022-10-05T06:54:51.959Z,8.07
2022-10-05T06:58:01.700Z,8.17
2022-10-05T07:00:35.659Z,8.34
2022-10-05T07:03:12.275Z,8.51
2022-10-05T07:05:52.501Z,8.65
2022-10-05T07:08:43.264Z,8.77
2022-10-05T07:11:38.552Z,8.88
2022-10-05T07:14:05.820Z,8.99
2022-10-05T07:16:47.766Z,9.14
2022-10-05T07:19:28.272Z,9.21
2022-10-05T07:22:13.968Z,9.25
2022-10-05T07:24:56.273Z,9.30
2022-10-05T07:27:27.317Z,9.43
2022-10-05T07:30:07.990Z,9.54
2022-10-05T07:32:56.421Z,9.61
2022-10-05T07:35:50.643Z,9.77
2022-10-05T07:38:32.564Z,9.85
2022-10-05T07:41:09.100Z,10.01
2022-10-05T07:44:02.166Z,10.11
2022-10-05T07:46:46.950Z,10.21
2022-10-05T07:49:27.017Z,10.34
2022-10-05T07:52:06.630Z,10.42
2022-10-05T07:54:42.236Z,10.48
2022-10-05T07:57:38.508Z,10.55
2022-10-05T08:00:13.271Z,10.71
2022-10-05T08:03:11.187Z,10.78
2022-10-05T08:05:42.410Z,10.85
2022-10-05T08:08:30.118Z,10.94
2022-10-05T08:11:07.469Z,10.99
2022-10-05T08:13:52.542Z,10.96
2022-10-05T08:16:19.838Z,11.01
2022-10-05T08:19:15.279Z,11.10
2022-10-05T08:21:48.114Z,11.20
2022-10-05T08:24:37.296Z,11.25
2022-10-05T08:27:24.489Z,11.25
2022-10-05T08:30:02.098Z,11.26
2022-10-05T08:32:58.792Z,11.39
2022-10-05T08:35:42.671Z,11.48
2022-10-05T08:38:25.034Z,11.57
2022-10-05T08:41:16.245Z,11.59
2022-10-05T08:43:51.819Z,11.71
2022-10-05T08:46:29.392Z,11.81
2022-10-05T08:49:35.499Z,11.86
2022-10-05T08:52:24.675Z,11.98
2022-10-05T08:55:09.955Z,12.06
2022-10-05T08:58:07.012Z,12.13
2022-10-05T09:00:54.368Z,12.19
2022-10-05T09:03:45.932Z,12.30
2022-10-05T09:06:39.899Z,12.44
2022-10-05T09:09:32.190Z,12.44
2022-10-05T09:12:37.116Z,12.50
2022-10-05T09:15:45.354Z,12.55
2022-10-05T09:18:52.109Z,12.58
2022-10-05T09:21:40.370Z,12.66
2022-10-05T09:24:10.080Z,12.75
2022-10-05T09:26:44.044Z,12.80
2022-10-05T09:29:19.909Z,12.86
2022-10-05T09:32:16.671Z,12.91
2022-10-05T09:34:58.461Z,12.99
2022-10-05T09:37:35.115Z,13.03
2022-10-05T09:40:16.922Z,13.08
2022-10-05T09:42:58.617Z,13.11
2022-10-05T09:45:56.208Z,13.15
2022-10-05T09:48:39.630Z,13.19
2022-10-05T09:51:38.653Z,13.22
2022-10-05T09:54:14.141Z,13.26
2022-10-05T09:56:46.812Z,13.35
2022-10-05T09:59:45.896Z,13.43
2022-10-05T10:02:44.600Z,13.61
2022-10-05T10:05:33.670Z,13.64
2022-10-05T10:08:17.690Z,13.77
2022-10-05T10:11:21.844Z,13.84
2022-10-05T10:14:30.381Z,13.98
2022-10-05T10:17:08.801Z,14.01
2022-10-05T10:20:01.969Z,14.03
2022-10-05T10:22:55.577Z,14.03
2022-10-05T10:25:56.008Z,14.04
2022-10-05T10:28:41.053Z,14.06
2022-10-05T10:31:34.704Z,14.07
2022-10-05T10:34:23.057Z,14.09
2022-10-05T10:37:14.295Z,14.09
2022-10-05T10:40:08.651Z,14.09
2022-10-05T10:43:14.246Z,14.13
2022-10-05T10:46:02.190Z,14.29
2022-10-05T10:48:29.069Z,14.36
2022-10-05T10:51:18.021Z,14.43
2022-10-05T10:54:14.355Z,14.49
2022-10-05T10:57:02.600Z,14.49
2022-10-05T10:59:47.653Z,14.52
2022-10-05T11:02:32.578Z,14.55
2022-10-05T11:05:14.223Z,14.60
2022-10-05T11:08:01.193Z,14.69
2022-10-05T11:10:33.630Z,14.78
2022-10-05T11:13:31.047Z,14.86
2022-10-05T11:16:31.204Z,14.90
2022-10-05T11:19:16.755Z,14.96
2022-10-05T11:22:13.235Z,15.00
2022-10-05T11:25:22.416Z,15.05
2022-10-05T11:28:14.982Z,15.12
2022-10-05T11:31:10.865Z,15.15
2022-10-05T11:34:08.003Z,15.29
2022-10-05T11:36:52.566Z,15.35
2022-10-05T11:39:44.530Z,15.41
2022-10-05T11:42:30.168Z,15.43
2022-10-05T11:45:18.179Z,15.46
2022-10-05T11:48:08.129Z,15.56
2022-10-05T11:50:57.408Z,15.68
2022-10-05T11:53:33.583Z,15.72
2022-10-05T11:56:27.024Z,15.76
2022-10-05T11:59:02.190Z,15.85
2022-10-05T12:01:41.892Z,15.88
2022-10-05T12:04:29.834Z,15.90
2022-10-05T12:07:14.612Z,15.97
2022-10-05T12:10:20.489Z,16.01
2022-10-05T12:12:56.704Z,16.07
2022-10-05T12:15:29.646Z,16.13
2022-10-05T12:18:13.203Z,16.18
2022-10-05T12:21:01.454Z,16.30
2022-10-05T12:23:37.468Z,16.37
2022-10-05T12:26:14.529Z,16.49
2022-10-05T12:28:47.397Z,16.51
2022-10-05T12:31:50.352Z,16.57
2022-10-05T12:34:51.807Z,16.60
2022-10-05T12:37:36.795Z,16.70
2022-10-05T12:40:14.492Z,16.72
2022-10-05T12:42:50.850Z,16.70
2022-10-05T12:45:43.812Z,16.75
2022-10-05T12:48:29.367Z,16.81
2022-10-05T12:51:19.417Z,16.82
2022-10-05T12:54:03.197Z,16.87
2022-10-05T12:56:42.660Z,16.91
2022-10-05T12:59:31.156Z,16.94
2022-10-05T13:02:06.781Z,17.03
2022-10-05T13:04:52.276Z,17.08
2022-10-05T13:07:35.513Z,17.11
2022-10-05T13:10:11.759Z,17.18
2022-10-05T13:13:26.238Z,17.24
2022-10-05T13:16:04.693Z,17.25
2022-10-05T13:18:51.772Z,17.32
2022-10-05T13:21:33.273Z,17.38
2022-10-05T13:24:11.825Z,17.40
2022-10-05T13:26:46.231Z,17.42
2022-10-05T13:29:21.685Z,17.42
2022-10-05T13:31:56.154Z,17.45
2022-10-05T13:34:25.605Z,17.50
2022-10-05T13:37:33.756Z,17.52
2022-10-05T13:40:03.279Z,17.55
2022-10-05T13:42:39.759Z,17.56
2022-10-05T13:45:15.224Z,17.63
2022-10-05T13:48:17.666Z,17.63
2022-10-05T13:51:05.206Z,17.65
2022-10-05T13:53:49.609Z,17.67
2022-10-05T13:56:20.745Z,17.71
2022-10-05T13:59:18.189Z,17.71
2022-10-05T14:01:56.768Z,17.72
2022-10-05T14:04:49.225Z,17.72
2022-10-05T14:07:36.297Z,17.73
2022-10-05T14:10:11.672Z,17.75
2022-10-05T14:12:44.263Z,17.75
2022-10-05T14:15:56.336Z,17.77
2022-10-05T14:18:24.138Z,17.77
2022-10-05T14:21:09.174Z,17.76
2022-10-05T14:23:36.212Z,17.79
2022-10-05T14:26:04.523Z,17.78
2022-10-05T14:28:35.624Z,17.78
2022-10-05T14:31:15.025Z,17.78
2022-10-05T14:33:42.258Z,17.78
2022-10-05T14:36:15.594Z,17.77
2022-10-05T14:39:01.510Z,17.77
2022-10-05T14:41:34.369Z,17.78
2022-10-05T14:44:13.194Z,17.79
2022-10-05T14:46:53.101Z,17.78
2022-10-05T14:49:32.076Z,17.77
2022-10-05T14:51:58.912Z,17.76
2022-10-05T14:54:28.600Z,17.77
2022-10-05T14:57:09.680Z,17.75
2022-10-05T14:59:42.225Z,17.74
2022-10-05T15:02:33.342Z,17.74
2022-10-05T15:05:28.171Z,17.73
2022-10-05T15:08:01.613Z,17.73
2022-10-05T15:10:28.384Z,17.71
2022-10-05T15:13:00.685Z,17.71
2022-10-05T15:15:39.473Z,17.69
2022-10-05T15:18:27.199Z,17.66
2022-10-05T15:21:15.165Z,17.67
2022-10-05T15:23:52.581Z,17.64
2022-10-05T15:26:56.727Z,17.63
2022-10-05T15:29:53.220Z,17.60
2022-10-05T15:32:37.990Z,17.57
2022-10-05T15:35:49.218Z,17.54
2022-10-05T15:38:25.953Z,17.53
2022-10-05T15:41:22.991Z,17.50
2022-10-05T15:44:01.076Z,17.47
2022-10-05T15:46:52.561Z,17.45
2022-10-05T15:49:43.840Z,17.41
2022-10-05T15:52:45.650Z,17.38
2022-10-05T15:55:27.828Z,17.35
2022-10-05T15:57:57.570Z,17.32
2022-10-05T16:00:26.525Z,17.30
2022-10-05T16:03:12.071Z,17.25
2022-10-05T16:05:45.700Z,17.22
2022-10-05T16:08:34.795Z,17.19
2022-10-05T16:11:04.869Z,17.16
2022-10-05T16:13:44.601Z,17.14
2022-10-05T16:16:25.074Z,17.12
2022-10-05T16:19:13.841Z,17.11
2022-10-05T16:21:48.507Z,17.06
2022-10-05T16:24:18.174Z,17.04
2022-10-05T16:26:59.657Z,16.99
2022-10-05T16:29:55.448Z,16.96
2022-10-05T16:32:26.355Z,16.92
2022-10-05T16:35:21.769Z,16.88
2022-10-05T16:38:15.015Z,16.87
2022-10-05T16:41:09.790Z,16.82
2022-10-05T16:43:42.928Z,16.80
2022-10-05T16:46:40.754Z,16.76
2022-10-05T16:49:22.481Z,16.67
2022-10-05T16:51:58.265Z,16.63
2022-10-05T16:54:43.106Z,16.65
2022-10-05T16:57:26.932Z,16.62
2022-10-05T17:00:16.069Z,16.55
2022-10-05T17:02:52.326Z,16.50
2022-10-05T17:05:53.080Z,16.48
2022-10-05T17:08:44.701Z,16.44
2022-10-05T17:11:23.428Z,16.38
2022-10-05T17:13:56.239Z,16.34
2022-10-05T17:16:36.099Z,16.33
2022-10-05T17:19:33.344Z,16.28
2022-10-05T17:22:21.521Z,16.26
2022-10-05T17:25:06.534Z,16.27
2022-10-05T17:27:53.997Z,16.21
2022-10-05T17:30:38.509Z,16.17
2022-10-05T17:33:22.562Z,16.16
2022-10-05T17:36:01.279Z,16.09
2022-10-05T17:38:31.098Z,16.04
2022-10-05T17:41:00.853Z,16.03
2022-10-05T17:43:29.897Z,16.00
2022-10-05T17:46:10.193Z,15.97
2022-10-05T17:49:06.737Z,15.97
2022-10-05T17:51:33.559Z,15.88
2022-10-05T17:54:21.164Z,15.82
2022-10-05T17:56:48.845Z,15.84
2022-10-05T17:59:53.697Z,15.79
2022-10-05T18:02:36.308Z,15.71
2022-10-05T18:05:03.952Z,15.70
2022-10-05T18:07:35.851Z,15.68
2022-10-05T18:10:12.079Z,15.64
2022-10-05T18:12:46.157Z,15.57
2022-10-05T18:15:37.558Z,15.59
2022-10-05T18:18:35.290Z,15.51
2022-10-05T18:21:22.766Z,15.49
2022-10-05T18:23:55.405Z,15.43
2022-10-05T18:26:34.787Z,15.39
2022-10-05T18:29:02.007Z,15.35
2022-10-05T18:31:42.650Z,15.30
2022-10-05T18:34:21.359Z,15.29
2022-10-05T18:37:07.523Z,15.25
2022-10-05T18:39:44.634Z,15.26
2022-10-05T18:42:48.433Z,15.17
2022-10-05T18:45:36.609Z,15.14
2022-10-05T18:48:22.761Z,15.12
2022-10-05T18:51:03.529Z,15.07
2022-10-05T18:53:47.261Z,15.11
2022-10-05T18:56:43.567Z,15.00
2022-10-05T18:59:40.177Z,15.01
2022-10-05T19:02:44.224Z,14.96
2022-10-05T19:05:53.424Z,14.96
2022-10-05T19:08:51.865Z,14.87
2022-10-05T19:11:48.618Z,14.81
2022-10-05T19:14:37.179Z,14.82
2022-10-05T19:17:25.909Z,14.77
2022-10-05T19:20:04.333Z,14.77
2022-10-05T19:22:34.313Z,14.73
2022-10-05T19:25:38.387Z,14.73
2022-10-05T19:28:38.712Z,14.69
2022-10-05T19:31:27.901Z,14.69
2022-10-05T19:34:39.140Z,14.61
2022-10-05T19:37:13.684Z,14.60
2022-10-05T19:39:49.885Z,14.58
2022-10-05T19:42:39.133Z,14.52
2022-10-05T19:45:09.314Z,14.59
2022-10-05T19:48:04.198Z,14.57
2022-10-05T19:50:37.014Z,14.55
2022-10-05T19:53:11.835Z,14.51
2022-10-05T19:55:41.736Z,14.47
2022-10-05T19:58:27.111Z,14.46
2022-10-05T20:01:00.107Z,14.44
2022-10-05T20:03:31.496Z,14.41
2022-10-05T20:06:04.127Z,14.38
2022-10-05T20:08:46.306Z,14.41
2022-10-05T20:11:21.928Z,14.37
2022-10-05T20:13:55.233Z,14.36
2022-10-05T20:16:25.647Z,14.33
2022-10-05T20:18:53.362Z,14.34
2022-10-05T20:21:39.013Z,14.34
2022-10-05T20:24:27.234Z,14.20
2022-10-05T20:26:57.443Z,14.26
2022-10-05T20:29:24.182Z,14.19
2022-10-05T20:31:51.035Z,14.17
2022-10-05T20:34:17.882Z,14.13
2022-10-05T20:36:44.873Z,14.07
2022-10-05T20:39:12.045Z,14.05
2022-10-05T20:41:38.883Z,14.04
2022-10-05T20:44:05.676Z,14.05
2022-10-05T20:46:32.579Z,14.05
2022-10-05T20:48:59.382Z,13.99
2022-10-05T20:51:26.339Z,13.92
2022-10-05T20:53:53.155Z,13.90
2022-10-05T20:56:19.906Z,13.90
2022-10-05T20:58:46.727Z,13.81
2022-10-05T21:01:13.536Z,13.84
2022-10-05T21:03:40.377Z,13.80
2022-10-05T21:06:07.495Z,13.78
2022-10-05T21:08:34.399Z,13.72
2022-10-05T21:11:01.165Z,13.74
2022-10-05T21:13:27.957Z,13.72
2022-10-05T21:15:54.761Z,13.67
2022-10-05T21:18:21.586Z,13.63
2022-10-05T21:20:48.500Z,13.62
2022-10-05T21:23:15.409Z,13.61
2022-10-05T21:25:42.159Z,13.53
2022-10-05T21:28:09.027Z,13.53
2022-10-05T21:30:35.969Z,13.55
2022-10-05T21:33:02.699Z,13.54
2022-10-05T21:35:29.479Z,13.42
2022-10-05T21:37:56.286Z,13.45
2022-10-05T21:40:23.096Z,13.44
2022-10-05T21:42:49.859Z,13.41
2022-10-05T21:45:16.818Z,13.39
2022-10-05T21:47:43.580Z,13.30
2022-10-05T21:50:10.561Z,13.30
2022-10-05T21:52:37.398Z,13.30
2022-10-05T21:55:05.875Z,13.26
2022-10-05T21:57:34.653Z,13.22
2022-10-05T22:00:01.673Z,13.17
2022-10-05T22:02:33.284Z,13.13
2022-10-05T22:05:00.264Z,13.16
2022-10-05T22:07:28.231Z,13.05
2022-10-05T22:09:55.353Z,13.08
2022-10-05T22:12:22.431Z,13.07
2022-10-05T22:14:49.391Z,13.02
2022-10-05T22:17:27.928Z,13.01
2022-10-05T22:19:55.815Z,13.00
2022-10-05T22:22:22.765Z,12.99
2022-10-05T22:24:50.323Z,12.96
2022-10-05T22:27:17.436Z,12.80
2022-10-05T22:29:44.524Z,12.80
2022-10-05T22:32:11.414Z,12.68
2022-10-05T22:34:38.231Z,12.57
2022-10-05T22:37:06.555Z,12.50
2022-10-05T22:39:33.334Z,12.52
2022-10-05T22:42:00.055Z,12.49
2022-10-05T22:44:27.034Z,12.37
2022-10-05T22:46:53.818Z,12.36
2022-10-05T22:49:20.757Z,12.35
2022-10-05T22:51:47.598Z,12.31
2022-10-05T22:54:14.406Z,12.29
2022-10-05T22:56:41.158Z,12.19
2022-10-05T22:59:08.028Z,12.15
2022-10-05T23:01:34.935Z,12.13
2022-10-05T23:04:02.137Z,12.18
2022-10-05T23:06:30.345Z,12.19
2022-10-05T23:08:57.391Z,12.11
2022-10-05T23:11:27.354Z,11.93
2022-10-05T23:13:55.819Z,12.00
2022-10-05T23:16:25.671Z,12.09
2022-10-05T23:18:54.071Z,12.04
2022-10-05T23:21:23.138Z,12.01
2022-10-05T23:23:50.138Z,11.98
2022-10-05T23:26:19.163Z,11.82
2022-10-05T23:28:46.049Z,11.75
2022-10-05T23:31:16.186Z,11.77
2022-10-05T23:33:43.642Z,11.78
2022-10-05T23:36:19.511Z,11.60
2022-10-05T23:38:47.161Z,11.60
2022-10-05T23:41:14.191Z,11.39
2022-10-05T23:43:40.979Z,11.29
2022-10-05T23:46:09.014Z,11.29
2022-10-05T23:48:37.091Z,11.32
2022-10-05T23:51:05.561Z,11.34
2022-10-05T23:53:32.538Z,11.21
2022-10-05T23:55:59.819Z,11.16
2022-10-05T23:58:27.376Z,11.05
